createdAt,value
2024-03-07T00:00:31.292Z,92.14
2024-03-07T00:02:58.324Z,92.12
2024-03-07T00:05:26.389Z,92.23
2024-03-07T00:07:54.169Z,92.14
2024-03-07T00:10:22.740Z,91.95
2024-03-07T00:12:49.956Z,92.07
2024-03-07T00:15:17.366Z,92.11
2024-03-07T00:17:44.740Z,92.43
2024-03-07T00:20:21.304Z,92.27
2024-03-07T00:22:50.708Z,92.49
2024-03-07T00:25:21.652Z,92.15
2024-03-07T00:27:48.866Z,92.42
2024-03-07T00:30:20.062Z,92.18
2024-03-07T00:32:48.987Z,92.12
2024-03-07T00:35:16.248Z,92.29
2024-03-07T00:37:43.711Z,92.24
2024-03-07T00:40:11.971Z,92.41
2024-03-07T00:42:39.057Z,92.30
2024-03-07T00:45:06.667Z,92.27
2024-03-07T00:47:33.831Z,92.28
2024-03-07T00:50:01.549Z,92.31
2024-03-07T00:52:28.552Z,92.31
2024-03-07T00:54:55.704Z,92.03
2024-03-07T00:57:22.589Z,92.21
2024-03-07T00:59:50.393Z,92.39
2024-03-07T01:02:18.669Z,92.38
2024-03-07T01:04:45.919Z,92.35
2024-03-07T01:07:12.894Z,92.56
2024-03-07T01:09:39.743Z,92.47
2024-03-07T01:12:07.333Z,92.12
2024-03-07T01:14:34.304Z,92.24
2024-03-07T01:17:01.289Z,92.06
2024-03-07T01:19:28.207Z,92.35
2024-03-07T01:21:55.215Z,92.15
2024-03-07T01:24:22.262Z,91.95
2024-03-07T01:26:49.609Z,91.78
2024-03-07T01:29:17.147Z,91.54
2024-03-07T01:31:44.512Z,91.08
2024-03-07T01:34:11.688Z,91.16
2024-03-07T01:36:38.884Z,91.13
2024-03-07T01:39:06.493Z,91.07
2024-03-07T01:41:35.997Z,91.17
2024-03-07T01:44:03.231Z,91.27
2024-03-07T01:46:31.230Z,91.26
2024-03-07T01:48:59.333Z,91.20
2024-03-07T01:51:26.399Z,91.27
2024-03-07T01:53:53.868Z,91.61
2024-03-07T01:56:21.220Z,91.45
2024-03-07T01:58:48.973Z,91.56
2024-03-07T02:01:16.955Z,91.59
2024-03-07T02:03:44.423Z,91.52
2024-03-07T02:06:13.479Z,91.59
2024-03-07T02:08:41.033Z,91.61
2024-03-07T02:11:09.585Z,92.03
2024-03-07T02:13:36.579Z,91.91
2024-03-07T02:16:03.586Z,91.94
2024-03-07T02:18:30.644Z,92.09
2024-03-07T02:20:57.636Z,92.24
2024-03-07T02:23:24.549Z,92.18
2024-03-07T02:25:51.465Z,92.33
2024-03-07T02:28:18.333Z,92.15
2024-03-07T02:30:47.021Z,92.39
2024-03-07T02:33:14.026Z,92.52
2024-03-07T02:35:41.135Z,92.64
2024-03-07T02:38:08.146Z,92.57
2024-03-07T02:40:35.217Z,92.41
2024-03-07T02:43:04.875Z,92.61
2024-03-07T02:45:32.211Z,92.42
2024-03-07T02:47:59.198Z,92.73
2024-03-07T02:50:26.433Z,92.85
2024-03-07T02:52:54.274Z,92.82
2024-03-07T02:55:21.902Z,93.05
2024-03-07T02:57:51.371Z,92.63
2024-03-07T03:00:21.943Z,92.81
2024-03-07T03:02:49.786Z,93.09
2024-03-07T03:05:17.341Z,92.86
2024-03-07T03:07:54.515Z,93.01
2024-03-07T03:10:28.242Z,92.72
2024-03-07T03:12:56.710Z,93.05
2024-03-07T03:15:23.623Z,93.20
2024-03-07T03:17:50.635Z,93.15
2024-03-07T03:20:26.968Z,93.33
2024-03-07T03:23:10.537Z,92.96
2024-03-07T03:25:42.971Z,93.15
2024-03-07T03:28:13.588Z,92.86
2024-03-07T03:30:42.875Z,92.37
2024-03-07T03:33:10.441Z,92.45
2024-03-07T03:35:41.404Z,92.23
2024-03-07T03:38:09.233Z,92.16
2024-03-07T03:40:36.645Z,91.90
2024-03-07T03:43:03.949Z,91.68
2024-03-07T03:45:30.906Z,92.01
2024-03-07T03:47:59.059Z,91.88
2024-03-07T03:50:26.210Z,91.76
2024-03-07T03:52:53.697Z,91.79
2024-03-07T03:55:22.190Z,91.31
2024-03-07T03:57:50.584Z,91.27
2024-03-07T04:00:18.340Z,90.91
2024-03-07T04:02:50.302Z,90.82
2024-03-07T04:05:20.755Z,90.59
2024-03-07T04:07:47.894Z,90.40
2024-03-07T04:10:16.745Z,90.43
2024-03-07T04:12:43.703Z,90.22
2024-03-07T04:15:12.669Z,89.87
2024-03-07T04:17:39.896Z,89.53
2024-03-07T04:20:08.206Z,89.56
2024-03-07T04:22:35.831Z,89.24
2024-03-07T04:25:03.348Z,88.91
2024-03-07T04:27:30.584Z,89.15
2024-03-07T04:29:57.750Z,89.06
2024-03-07T04:32:25.018Z,88.52
2024-03-07T04:34:52.411Z,88.65
2024-03-07T04:37:19.350Z,89.01
2024-03-07T04:39:47.218Z,89.07
2024-03-07T04:42:14.214Z,89.08
2024-03-07T04:44:41.443Z,88.99
2024-03-07T04:47:08.899Z,89.01
2024-03-07T04:49:36.108Z,89.11
2024-03-07T04:52:04.383Z,88.91
2024-03-07T04:54:33.363Z,88.71
2024-03-07T04:57:00.446Z,89.13
2024-03-07T04:59:27.439Z,89.17
2024-03-07T05:01:54.354Z,89.08
2024-03-07T05:04:21.250Z,89.25
2024-03-07T05:06:51.107Z,89.65
2024-03-07T05:09:27.548Z,89.57
2024-03-07T05:11:55.297Z,89.90
2024-03-07T05:14:23.508Z,90.05
2024-03-07T05:17:06.433Z,89.80
2024-03-07T05:19:34.697Z,89.99
2024-03-07T05:22:02.192Z,90.24
2024-03-07T05:24:29.036Z,90.47
2024-03-07T05:26:56.209Z,90.34
2024-03-07T05:29:23.831Z,90.43
2024-03-07T05:31:50.777Z,90.40
2024-03-07T05:34:20.590Z,90.41
2024-03-07T05:36:48.391Z,90.73
2024-03-07T05:39:16.648Z,90.76
2024-03-07T05:41:46.401Z,90.88
2024-03-07T05:44:13.782Z,91.22
2024-03-07T05:46:48.100Z,91.41
2024-03-07T05:49:15.872Z,91.51
2024-03-07T05:51:43.665Z,91.35
2024-03-07T05:54:10.632Z,91.40
2024-03-07T05:56:38.106Z,91.46
2024-03-07T05:59:05.721Z,91.79
2024-03-07T06:01:35.688Z,91.67
2024-03-07T06:04:03.680Z,91.71
2024-03-07T06:06:33.220Z,91.70
2024-03-07T06:09:02.371Z,91.73
2024-03-07T06:11:29.453Z,91.75
2024-03-07T06:13:56.489Z,92.02
2024-03-07T06:16:23.462Z,91.99
2024-03-07T06:18:50.376Z,91.90
2024-03-07T06:21:17.422Z,91.88
2024-03-07T06:23:44.656Z,92.04
2024-03-07T06:26:18.266Z,92.01
2024-03-07T06:28:46.696Z,92.24
2024-03-07T06:31:13.668Z,91.93
2024-03-07T06:33:40.669Z,92.11
2024-03-07T06:36:07.832Z,92.45
2024-03-07T06:38:34.793Z,92.47
2024-03-07T06:41:01.736Z,92.38
2024-03-07T06:43:28.562Z,92.38
2024-03-07T06:45:56.091Z,92.45
2024-03-07T06:48:23.376Z,92.50
2024-03-07T06:50:50.555Z,92.59
2024-03-07T06:53:18.320Z,92.57
2024-03-07T06:55:45.516Z,92.72
2024-03-07T06:58:12.640Z,92.72
2024-03-07T07:00:41.694Z,92.68
2024-03-07T07:03:08.961Z,92.72
2024-03-07T07:05:36.273Z,92.74
2024-03-07T07:08:03.705Z,92.63
2024-03-07T07:10:31.226Z,92.71
2024-03-07T07:12:58.296Z,92.40
2024-03-07T07:15:25.431Z,92.45
2024-03-07T07:17:52.562Z,92.43
2024-03-07T07:20:20.331Z,92.15
2024-03-07T07:22:48.662Z,92.04
2024-03-07T07:25:15.836Z,92.06
2024-03-07T07:27:50.519Z,92.18
2024-03-07T07:30:25.031Z,92.04
2024-03-07T07:32:53.142Z,91.98
2024-03-07T07:35:20.616Z,92.10
2024-03-07T07:37:49.552Z,91.80
2024-03-07T07:40:19.683Z,91.58
2024-03-07T07:42:47.990Z,91.58
2024-03-07T07:45:17.258Z,91.62
2024-03-07T07:47:54.776Z,91.35
2024-03-07T07:50:23.931Z,90.92
2024-03-07T07:52:51.803Z,90.93
2024-03-07T07:55:19.232Z,90.80
2024-03-07T07:57:47.736Z,90.53
2024-03-07T08:00:25.223Z,89.70
2024-03-07T08:03:03.252Z,89.20
2024-03-07T08:05:32.970Z,88.64
2024-03-07T08:08:03.761Z,87.69
2024-03-07T08:10:30.967Z,86.82
2024-03-07T08:13:02.826Z,86.41
2024-03-07T08:15:30.988Z,85.77
2024-03-07T08:17:58.986Z,85.08
2024-03-07T08:20:27.215Z,84.76
2024-03-07T08:22:56.563Z,83.90
2024-03-07T08:25:25.469Z,83.28
2024-03-07T08:27:54.254Z,82.79
2024-03-07T08:30:21.369Z,82.69
2024-03-07T08:32:51.025Z,81.88
2024-03-07T08:35:17.970Z,81.65
2024-03-07T08:37:46.828Z,81.08
2024-03-07T08:40:26.392Z,80.44
2024-03-07T08:42:55.740Z,79.60
2024-03-07T08:45:23.045Z,79.47
2024-03-07T08:47:51.946Z,78.95
2024-03-07T08:50:19.487Z,78.60
2024-03-07T08:52:49.346Z,78.12
2024-03-07T08:55:18.133Z,77.96
2024-03-07T08:57:47.366Z,77.69
2024-03-07T09:00:24.136Z,77.48
2024-03-07T09:02:53.784Z,76.85
2024-03-07T09:05:24.811Z,76.31
2024-03-07T09:07:53.300Z,76.17
2024-03-07T09:10:20.835Z,75.61
2024-03-07T09:12:51.518Z,75.71
2024-03-07T09:15:19.258Z,75.42
2024-03-07T09:17:47.253Z,74.92
2024-03-07T09:20:17.455Z,74.82
2024-03-07T09:22:45.681Z,74.18
2024-03-07T09:25:14.695Z,74.37
2024-03-07T09:27:42.381Z,73.69
2024-03-07T09:30:13.516Z,73.60
2024-03-07T09:32:41.988Z,72.96
2024-03-07T09:35:13.544Z,72.88
2024-03-07T09:37:41.893Z,72.42
2024-03-07T09:40:13.810Z,71.93
2024-03-07T09:42:56.188Z,71.92
2024-03-07T09:45:24.698Z,71.45
2024-03-07T09:47:53.961Z,71.07
2024-03-07T09:50:24.007Z,70.80
2024-03-07T09:52:55.237Z,70.36
2024-03-07T09:55:26.819Z,70.29
2024-03-07T09:57:57.780Z,70.30
2024-03-07T10:00:29.557Z,69.62
2024-03-07T10:03:00.963Z,68.79
2024-03-07T10:05:28.977Z,68.97
2024-03-07T10:07:56.938Z,68.73
2024-03-07T10:10:24.675Z,68.63
2024-03-07T10:12:54.713Z,68.22
2024-03-07T10:15:22.894Z,67.71
2024-03-07T10:17:51.775Z,67.51
2024-03-07T10:20:22.098Z,67.35
2024-03-07T10:22:51.880Z,66.69
2024-03-07T10:25:20.671Z,66.47
2024-03-07T10:27:50.517Z,65.51
2024-03-07T10:30:22.558Z,64.66
2024-03-07T10:32:54.597Z,63.78
2024-03-07T10:35:27.911Z,62.98
2024-03-07T10:37:55.813Z,62.67
2024-03-07T10:40:23.966Z,61.84
2024-03-07T10:42:55.811Z,61.07
2024-03-07T10:45:23.075Z,60.84
2024-03-07T10:48:02.692Z,60.92
2024-03-07T10:50:48.939Z,60.59
2024-03-07T10:53:43.900Z,60.04
2024-03-07T10:56:35.394Z,59.61
2024-03-07T10:59:16.500Z,59.42
2024-03-07T11:01:53.164Z,58.72
2024-03-07T11:04:24.088Z,58.31
2024-03-07T11:06:51.188Z,58.11
2024-03-07T11:09:24.424Z,58.14
2024-03-07T11:11:51.729Z,57.77
2024-03-07T11:14:19.081Z,57.98
2024-03-07T11:16:46.443Z,57.51
2024-03-07T11:19:22.522Z,57.58
2024-03-07T11:21:49.753Z,57.77
2024-03-07T11:24:26.883Z,57.84
2024-03-07T11:26:55.298Z,57.57
2024-03-07T11:29:44.793Z,57.52
2024-03-07T11:32:13.351Z,57.79
2024-03-07T11:34:42.797Z,57.56
2024-03-07T11:37:18.858Z,57.42
2024-03-07T11:39:51.683Z,57.18
2024-03-07T11:42:27.064Z,57.06
2024-03-07T11:44:58.229Z,56.82
2024-03-07T11:47:37.305Z,56.50
2024-03-07T11:50:13.462Z,56.43
2024-03-07T11:52:45.887Z,55.81
2024-03-07T11:55:13.515Z,55.09
2024-03-07T11:57:42.008Z,54.95
2024-03-07T12:00:12.103Z,54.52
2024-03-07T12:02:44.960Z,54.46
2024-03-07T12:05:11.968Z,53.71
2024-03-07T12:07:39.693Z,53.63
2024-03-07T12:10:08.202Z,53.00
2024-03-07T12:12:35.401Z,53.72
2024-03-07T12:15:10.251Z,53.21
2024-03-07T12:17:37.338Z,54.54
2024-03-07T12:20:25.061Z,53.45
2024-03-07T12:22:54.478Z,52.13
2024-03-07T12:25:23.177Z,51.97
2024-03-07T12:28:07.221Z,51.12
2024-03-07T12:30:35.726Z,50.95
2024-03-07T12:33:05.901Z,50.81
2024-03-07T12:35:33.614Z,51.24
2024-03-07T12:38:01.132Z,50.84
2024-03-07T12:40:31.109Z,50.44
2024-03-07T12:42:58.054Z,50.42
2024-03-07T12:45:25.013Z,49.86
2024-03-07T12:47:55.913Z,49.44
2024-03-07T12:50:23.038Z,49.60
2024-03-07T12:52:53.789Z,49.61
2024-03-07T12:55:22.767Z,49.51
2024-03-07T12:57:51.436Z,49.29
2024-03-07T13:00:21.758Z,48.71
2024-03-07T13:02:49.764Z,48.50
2024-03-07T13:05:22.755Z,48.30
2024-03-07T13:07:50.182Z,47.94
2024-03-07T13:10:17.404Z,48.90
2024-03-07T13:12:46.991Z,48.63
2024-03-07T13:15:14.137Z,48.69
2024-03-07T13:17:41.616Z,48.00
2024-03-07T13:20:14.097Z,47.39
2024-03-07T13:22:44.903Z,47.55
2024-03-07T13:25:15.102Z,47.34
2024-03-07T13:27:45.209Z,47.07
2024-03-07T13:30:17.181Z,47.50
2024-03-07T13:32:46.149Z,47.28
2024-03-07T13:35:13.343Z,46.72
2024-03-07T13:37:40.261Z,47.16
2024-03-07T13:40:24.252Z,47.25
2024-03-07T13:42:53.132Z,47.31
2024-03-07T13:45:22.409Z,47.15
2024-03-07T13:47:49.934Z,47.08
2024-03-07T13:50:31.043Z,46.59
2024-03-07T13:53:19.563Z,46.21
2024-03-07T13:55:56.480Z,46.42
2024-03-07T13:58:32.824Z,46.35
2024-03-07T14:01:22.235Z,46.09
2024-03-07T14:04:02.409Z,45.90
2024-03-07T14:06:47.662Z,45.94
2024-03-07T14:09:37.697Z,45.98
2024-03-07T14:12:26.423Z,45.78
2024-03-07T14:15:32.589Z,45.92
2024-03-07T14:18:27.632Z,45.32
2024-03-07T14:21:12.398Z,45.14
2024-03-07T14:24:01.700Z,45.30
2024-03-07T14:26:47.789Z,45.14
2024-03-07T14:29:28.700Z,45.11
2024-03-07T14:31:55.593Z,44.60
2024-03-07T14:34:35.129Z,43.97
2024-03-07T14:37:19.043Z,44.19
2024-03-07T14:39:49.575Z,44.57
2024-03-07T14:42:17.030Z,44.18
2024-03-07T14:44:49.737Z,44.10
2024-03-07T14:47:20.788Z,44.01
2024-03-07T14:49:47.790Z,44.62
2024-03-07T14:52:14.716Z,43.88
2024-03-07T14:54:42.035Z,44.33
2024-03-07T14:57:11.728Z,43.78
2024-03-07T14:59:39.403Z,44.09
2024-03-07T15:02:12.159Z,44.07
2024-03-07T15:04:41.129Z,43.56
2024-03-07T15:07:11.025Z,43.82
2024-03-07T15:09:39.647Z,43.89
2024-03-07T15:12:08.491Z,43.69
2024-03-07T15:14:38.859Z,43.21
2024-03-07T15:17:08.099Z,43.54
2024-03-07T15:19:36.518Z,43.11
2024-03-07T15:22:04.704Z,43.29
2024-03-07T15:24:31.904Z,43.54
2024-03-07T15:26:59.105Z,43.31
2024-03-07T15:29:26.281Z,42.87
2024-03-07T15:31:53.515Z,43.43
2024-03-07T15:34:22.364Z,43.08
2024-03-07T15:37:00.014Z,42.87
2024-03-07T15:39:31.573Z,42.88
2024-03-07T15:42:00.786Z,42.59
2024-03-07T15:44:27.930Z,42.10
2024-03-07T15:46:55.297Z,40.75
2024-03-07T15:49:22.708Z,40.67
2024-03-07T15:51:49.565Z,41.27
2024-03-07T15:54:19.567Z,41.52
2024-03-07T15:56:47.349Z,41.95
2024-03-07T15:59:14.773Z,42.12
2024-03-07T16:01:42.421Z,42.15
2024-03-07T16:04:09.566Z,42.09
2024-03-07T16:06:36.664Z,42.48
2024-03-07T16:09:03.688Z,42.91
2024-03-07T16:11:31.228Z,42.71
2024-03-07T16:13:58.799Z,42.61
2024-03-07T16:16:25.886Z,43.09
2024-03-07T16:18:53.868Z,43.65
2024-03-07T16:21:21.070Z,43.44
2024-03-07T16:23:48.116Z,43.64
2024-03-07T16:26:18.193Z,44.31
2024-03-07T16:28:45.224Z,44.75
2024-03-07T16:31:12.424Z,45.04
2024-03-07T16:33:39.398Z,45.78
2024-03-07T16:36:06.654Z,46.44
2024-03-07T16:38:36.026Z,46.38
2024-03-07T16:41:03.092Z,46.73
2024-03-07T16:43:30.041Z,46.80
2024-03-07T16:45:57.080Z,47.42
2024-03-07T16:48:24.181Z,47.58
2024-03-07T16:50:53.353Z,48.05
2024-03-07T16:53:20.279Z,48.12
2024-03-07T16:55:49.794Z,48.29
2024-03-07T16:58:17.756Z,48.51
2024-03-07T17:00:45.286Z,48.63
2024-03-07T17:03:15.108Z,48.84
2024-03-07T17:05:44.315Z,48.98
2024-03-07T17:08:17.932Z,49.27
2024-03-07T17:10:46.481Z,49.25
2024-03-07T17:13:15.714Z,49.61
2024-03-07T17:15:44.640Z,49.69
2024-03-07T17:18:13.528Z,50.08
2024-03-07T17:20:42.087Z,50.09
2024-03-07T17:23:10.120Z,50.53
2024-03-07T17:25:37.746Z,50.43
2024-03-07T17:28:05.568Z,50.66
2024-03-07T17:30:36.964Z,50.87
2024-03-07T17:33:07.602Z,51.18
2024-03-07T17:35:38.328Z,51.18
2024-03-07T17:38:05.792Z,51.36
2024-03-07T17:40:34.909Z,51.55
2024-03-07T17:43:06.324Z,51.70
2024-03-07T17:45:38.204Z,52.50
2024-03-07T17:48:08.060Z,53.63
2024-03-07T17:50:37.045Z,53.90
2024-03-07T17:53:10.475Z,53.62
2024-03-07T17:55:43.146Z,54.04
2024-03-07T17:58:12.498Z,53.89
2024-03-07T18:00:44.465Z,53.97
2024-03-07T18:03:12.330Z,54.06
2024-03-07T18:05:43.028Z,54.25
2024-03-07T18:10:52.006Z,54.73
2024-03-07T18:13:22.126Z,55.11
2024-03-07T18:15:50.641Z,55.12
2024-03-07T18:18:18.730Z,55.46
2024-03-07T18:20:47.168Z,55.69
2024-03-07T18:23:15.491Z,55.67
2024-03-07T18:25:43.152Z,55.92
2024-03-07T18:28:11.043Z,55.69
2024-03-07T18:30:38.408Z,55.55
2024-03-07T18:33:06.046Z,55.31
2024-03-07T18:35:34.878Z,55.62
2024-03-07T18:38:03.062Z,55.37
2024-03-07T18:40:30.621Z,55.61
2024-03-07T18:42:58.234Z,55.76
2024-03-07T18:45:27.953Z,55.73
2024-03-07T18:47:55.509Z,55.76
2024-03-07T18:50:27.531Z,55.99
2024-03-07T18:52:57.218Z,55.98
2024-03-07T18:55:30.692Z,56.24
2024-03-07T18:58:04.189Z,55.92
2024-03-07T19:00:38.465Z,56.31
2024-03-07T19:03:09.974Z,56.39
2024-03-07T19:05:43.683Z,56.25
2024-03-07T19:08:23.739Z,56.14
2024-03-07T19:10:54.700Z,56.15
2024-03-07T19:13:22.153Z,56.56
2024-03-07T19:15:50.647Z,56.54
2024-03-07T19:18:18.644Z,56.61
2024-03-07T19:20:47.130Z,56.40
2024-03-07T19:23:14.758Z,56.43
2024-03-07T19:25:42.374Z,56.87
2024-03-07T19:28:14.729Z,56.54
2024-03-07T19:30:45.835Z,56.63
2024-03-07T19:33:17.161Z,56.60
2024-03-07T19:35:58.236Z,56.46
2024-03-07T19:38:25.677Z,56.30
2024-03-07T19:40:53.452Z,56.56
2024-03-07T19:43:26.307Z,56.81
2024-03-07T19:45:54.255Z,56.88
2024-03-07T19:48:26.917Z,56.80
2024-03-07T19:50:56.959Z,56.85
2024-03-07T19:53:24.384Z,57.12
2024-03-07T19:55:51.504Z,57.20
2024-03-07T19:58:20.705Z,57.14
2024-03-07T20:00:49.964Z,57.17
2024-03-07T20:03:24.050Z,56.77
2024-03-07T20:05:53.869Z,57.11
2024-03-07T20:08:22.763Z,57.35
2024-03-07T20:10:51.954Z,57.31
2024-03-07T20:13:21.065Z,56.99
2024-03-07T20:15:48.171Z,57.25
2024-03-07T20:18:15.798Z,57.41
2024-03-07T20:20:47.701Z,57.57
2024-03-07T20:23:15.537Z,57.81
2024-03-07T20:25:43.589Z,57.74
2024-03-07T20:28:10.784Z,57.60
2024-03-07T20:30:38.990Z,57.73
2024-03-07T20:33:07.009Z,57.67
2024-03-07T20:35:35.329Z,57.45
2024-03-07T20:38:06.585Z,57.68
2024-03-07T20:40:33.771Z,57.78
2024-03-07T20:43:00.951Z,57.89
2024-03-07T20:45:28.106Z,57.65
2024-03-07T20:47:55.409Z,58.08
2024-03-07T20:50:25.839Z,57.81
2024-03-07T20:52:54.755Z,57.76
2024-03-07T20:55:24.559Z,57.92
2024-03-07T20:57:52.188Z,58.10
2024-03-07T21:00:32.526Z,57.83
2024-03-07T21:02:59.807Z,58.11
2024-03-07T21:05:27.423Z,58.06
2024-03-07T21:07:54.917Z,58.51
2024-03-07T21:10:25.927Z,58.25
2024-03-07T21:12:54.246Z,58.35
2024-03-07T21:15:21.620Z,58.63
2024-03-07T21:17:49.217Z,58.68
2024-03-07T21:20:20.514Z,58.73
2024-03-07T21:22:49.154Z,58.88
2024-03-07T21:25:18.540Z,59.00
2024-03-07T21:27:50.376Z,58.89
2024-03-07T21:30:17.954Z,58.73
2024-03-07T21:32:45.968Z,58.98
2024-03-07T21:35:13.350Z,59.06
2024-03-07T21:37:44.516Z,59.15
2024-03-07T21:40:17.913Z,59.16
2024-03-07T21:42:51.927Z,59.24
2024-03-07T21:45:19.700Z,59.32
2024-03-07T21:47:47.861Z,59.34
2024-03-07T21:50:16.823Z,59.15
2024-03-07T21:52:46.206Z,59.49
2024-03-07T21:55:13.976Z,59.50
2024-03-07T21:57:43.934Z,59.66
2024-03-07T22:00:17.757Z,59.41
2024-03-07T22:02:57.549Z,59.99
2024-03-07T22:05:29.681Z,59.97
2024-03-07T22:07:57.607Z,59.76
2024-03-07T22:10:24.530Z,60.38
2024-03-07T22:12:54.058Z,60.39
2024-03-07T22:15:24.062Z,60.66
2024-03-07T22:17:54.600Z,60.84
2024-03-07T22:20:24.330Z,61.07
2024-03-07T22:22:52.841Z,61.41
2024-03-07T22:25:23.286Z,61.48
2024-03-07T22:27:51.158Z,61.36
2024-03-07T22:30:23.285Z,61.10
2024-03-07T22:32:51.992Z,61.07
2024-03-07T22:35:19.289Z,61.14
2024-03-07T22:37:49.477Z,61.21
2024-03-07T22:40:16.931Z,61.82
2024-03-07T22:42:46.913Z,61.90
2024-03-07T22:45:15.781Z,61.99
2024-03-07T22:47:43.618Z,62.27
2024-03-07T22:50:18.303Z,62.56
2024-03-07T22:52:53.937Z,62.62
2024-03-07T22:55:21.011Z,62.80
2024-03-07T22:57:47.861Z,62.89
2024-03-07T23:00:25.530Z,63.07
2024-03-07T23:02:53.195Z,62.83
2024-03-07T23:05:23.022Z,62.90
2024-03-07T23:07:51.624Z,63.12
2024-03-07T23:10:21.319Z,63.12
2024-03-07T23:12:51.038Z,63.12
2024-03-07T23:15:18.478Z,63.65
2024-03-07T23:17:46.442Z,63.48
2024-03-07T23:20:23.837Z,63.71
2024-03-07T23:22:58.669Z,64.08
2024-03-07T23:25:27.149Z,64.07
2024-03-07T23:27:55.750Z,63.99
2024-03-07T23:30:24.683Z,64.26
2024-03-07T23:32:54.007Z,64.38
2024-03-07T23:35:21.658Z,64.49
2024-03-07T23:37:49.371Z,64.46
2024-03-07T23:40:16.526Z,64.58
2024-03-07T23:42:44.349Z,64.77
2024-03-07T23:45:14.133Z,64.64
2024-03-07T23:47:44.923Z,64.58
2024-03-07T23:50:13.323Z,65.11
2024-03-07T23:52:46.481Z,64.98
2024-03-07T23:55:17.558Z,65.36
2024-03-07T23:57:45.708Z,65.22
